sensor_id;sensor_type;location;lat;lon;timestamp;P1;durP1;ratioP1;P2;durP2;ratioP2
9500;SDS011;4788;52.438;9.846;2022-08-21T00:00:11;0.50;;;0.50;;
9500;SDS011;4788;52.438;9.846;2022-08-21T00:02:44;0.50;;;0.50;;
9500;SDS011;4788;52.438;9.846;2022-08-21T00:05:10;0.33;;;0.33;;
9500;SDS011;4788;52.438;9.846;2022-08-21T00:07:36;0.40;;;0.40;;
9500;SDS011;4788;52.438;9.846;2022-08-21T00:10:02;0.40;;;0.40;;
9500;SDS011;4788;52.438;9.846;2022-08-21T00:12:28;0.40;;;0.40;;
9500;SDS011;4788;52.438;9.846;2022-08-21T00:14:55;0.40;;;0.40;;
9500;SDS011;4788;52.438;9.846;2022-08-21T00:17:21;0.40;;;0.40;;
9500;SDS011;4788;52.438;9.846;2022-08-21T00:19:48;0.40;;;0.40;;
9500;SDS011;4788;52.438;9.846;2022-08-21T00:22:14;0.40;;;0.40;;
9500;SDS011;4788;52.438;9.846;2022-08-21T00:24:40;0.40;;;0.40;;
9500;SDS011;4788;52.438;9.846;2022-08-21T00:27:06;0.40;;;0.40;;
9500;SDS011;4788;52.438;9.846;2022-08-21T00:29:32;0.40;;;0.40;;
9500;SDS011;4788;52.438;9.846;2022-08-21T00:31:58;0.50;;;0.50;;
9500;SDS011;4788;52.438;9.846;2022-08-21T00:34:24;0.40;;;0.40;;
9500;SDS011;4788;52.438;9.846;2022-08-21T00:36:50;0.40;;;0.40;;
9500;SDS011;4788;52.438;9.846;2022-08-21T00:39:16;0.40;;;0.40;;
9500;SDS011;4788;52.438;9.846;2022-08-21T00:41:42;0.30;;;0.30;;
9500;SDS011;4788;52.438;9.846;2022-08-21T00:44:09;0.40;;;0.40;;
9500;SDS011;4788;52.438;9.846;2022-08-21T00:46:36;0.50;;;0.50;;
9500;SDS011;4788;52.438;9.846;2022-08-21T00:49:03;0.40;;;0.40;;
9500;SDS011;4788;52.438;9.846;2022-08-21T00:51:33;0.40;;;0.40;;
9500;SDS011;4788;52.438;9.846;2022-08-21T00:54:00;0.40;;;0.40;;
9500;SDS011;4788;52.438;9.846;2022-08-21T00:56:26;0.40;;;0.40;;
9500;SDS011;4788;52.438;9.846;2022-08-21T00:58:53;0.50;;;0.50;;
9500;SDS011;4788;52.438;9.846;2022-08-21T01:01:21;0.43;;;0.43;;
9500;SDS011;4788;52.438;9.846;2022-08-21T01:03:47;0.40;;;0.40;;
9500;SDS011;4788;52.438;9.846;2022-08-21T01:06:13;0.47;;;0.47;;
9500;SDS011;4788;52.438;9.846;2022-08-21T01:08:39;0.43;;;0.43;;
9500;SDS011;4788;52.438;9.846;2022-08-21T01:11:05;0.37;;;0.37;;
9500;SDS011;4788;52.438;9.846;2022-08-21T01:13:32;0.40;;;0.40;;
9500;SDS011;4788;52.438;9.846;2022-08-21T01:16:00;0.47;;;0.47;;
9500;SDS011;4788;52.438;9.846;2022-08-21T01:18:28;0.50;;;0.50;;
9500;SDS011;4788;52.438;9.846;2022-08-21T01:23:32;0.40;;;0.40;;
9500;SDS011;4788;52.438;9.846;2022-08-21T01:25:58;0.60;;;0.60;;
9500;SDS011;4788;52.438;9.846;2022-08-21T01:28:24;0.50;;;0.50;;
9500;SDS011;4788;52.438;9.846;2022-08-21T01:30:50;0.40;;;0.40;;
9500;SDS011;4788;52.438;9.846;2022-08-21T01:33:20;0.43;;;0.43;;
9500;SDS011;4788;52.438;9.846;2022-08-21T01:35:47;0.40;;;0.40;;
9500;SDS011;4788;52.438;9.846;2022-08-21T01:38:14;0.50;;;0.50;;
9500;SDS011;4788;52.438;9.846;2022-08-21T01:40:40;0.40;;;0.40;;
9500;SDS011;4788;52.438;9.846;2022-08-21T01:43:07;0.50;;;0.50;;
9500;SDS011;4788;52.438;9.846;2022-08-21T01:45:33;0.40;;;0.40;;
9500;SDS011;4788;52.438;9.846;2022-08-21T01:47:59;0.60;;;0.60;;
9500;SDS011;4788;52.438;9.846;2022-08-21T01:50:24;0.50;;;0.50;;
9500;SDS011;4788;52.438;9.846;2022-08-21T01:52:50;0.40;;;0.40;;
9500;SDS011;4788;52.438;9.846;2022-08-21T01:55:17;0.50;;;0.50;;
9500;SDS011;4788;52.438;9.846;2022-08-21T01:57:44;0.40;;;0.40;;
9500;SDS011;4788;52.438;9.846;2022-08-21T02:00:11;0.50;;;0.50;;
9500;SDS011;4788;52.438;9.846;2022-08-21T02:02:37;0.40;;;0.40;;
9500;SDS011;4788;52.438;9.846;2022-08-21T02:05:04;0.40;;;0.40;;
9500;SDS011;4788;52.438;9.846;2022-08-21T02:07:37;0.50;;;0.50;;
9500;SDS011;4788;52.438;9.846;2022-08-21T02:10:03;0.47;;;0.47;;
9500;SDS011;4788;52.438;9.846;2022-08-21T02:12:30;0.50;;;0.50;;
9500;SDS011;4788;52.438;9.846;2022-08-21T02:14:56;0.50;;;0.50;;
9500;SDS011;4788;52.438;9.846;2022-08-21T02:17:22;0.50;;;0.50;;
9500;SDS011;4788;52.438;9.846;2022-08-21T02:19:48;0.50;;;0.50;;
9500;SDS011;4788;52.438;9.846;2022-08-21T02:22:13;0.40;;;0.40;;
9500;SDS011;4788;52.438;9.846;2022-08-21T02:24:39;0.50;;;0.50;;
9500;SDS011;4788;52.438;9.846;2022-08-21T02:27:05;0.50;;;0.50;;
9500;SDS011;4788;52.438;9.846;2022-08-21T02:29:31;0.50;;;0.50;;
9500;SDS011;4788;52.438;9.846;2022-08-21T02:31:57;0.40;;;0.40;;
9500;SDS011;4788;52.438;9.846;2022-08-21T02:34:23;0.47;;;0.47;;
9500;SDS011;4788;52.438;9.846;2022-08-21T02:36:49;0.43;;;0.43;;
9500;SDS011;4788;52.438;9.846;2022-08-21T02:39:15;0.50;;;0.50;;
9500;SDS011;4788;52.438;9.846;2022-08-21T02:41:41;0.40;;;0.40;;
9500;SDS011;4788;52.438;9.846;2022-08-21T02:44:08;0.50;;;0.50;;
9500;SDS011;4788;52.438;9.846;2022-08-21T02:46:34;0.47;;;0.47;;
9500;SDS011;4788;52.438;9.846;2022-08-21T02:49:00;0.60;;;0.60;;
9500;SDS011;4788;52.438;9.846;2022-08-21T02:51:26;0.50;;;0.50;;
9500;SDS011;4788;52.438;9.846;2022-08-21T02:53:52;0.40;;;0.40;;
9500;SDS011;4788;52.438;9.846;2022-08-21T02:56:19;0.50;;;0.50;;
9500;SDS011;4788;52.438;9.846;2022-08-21T02:58:47;0.50;;;0.50;;
9500;SDS011;4788;52.438;9.846;2022-08-21T03:01:14;0.50;;;0.50;;
9500;SDS011;4788;52.438;9.846;2022-08-21T03:03:41;0.50;;;0.50;;
9500;SDS011;4788;52.438;9.846;2022-08-21T03:06:08;0.50;;;0.50;;
9500;SDS011;4788;52.438;9.846;2022-08-21T03:08:34;0.50;;;0.50;;
9500;SDS011;4788;52.438;9.846;2022-08-21T03:11:00;0.50;;;0.50;;
9500;SDS011;4788;52.438;9.846;2022-08-21T03:13:27;0.50;;;0.50;;
9500;SDS011;4788;52.438;9.846;2022-08-21T03:15:53;0.40;;;0.40;;
9500;SDS011;4788;52.438;9.846;2022-08-21T03:18:20;0.50;;;0.50;;
9500;SDS011;4788;52.438;9.846;2022-08-21T03:20:46;0.50;;;0.50;;
9500;SDS011;4788;52.438;9.846;2022-08-21T03:23:12;0.50;;;0.50;;
9500;SDS011;4788;52.438;9.846;2022-08-21T03:25:38;0.50;;;0.50;;
9500;SDS011;4788;52.438;9.846;2022-08-21T03:28:05;0.40;;;0.40;;
9500;SDS011;4788;52.438;9.846;2022-08-21T03:30:32;0.60;;;0.60;;
9500;SDS011;4788;52.438;9.846;2022-08-21T03:32:58;0.50;;;0.50;;
9500;SDS011;4788;52.438;9.846;2022-08-21T03:35:24;0.50;;;0.50;;
9500;SDS011;4788;52.438;9.846;2022-08-21T03:37:50;0.40;;;0.40;;
9500;SDS011;4788;52.438;9.846;2022-08-21T03:40:17;0.50;;;0.50;;
9500;SDS011;4788;52.438;9.846;2022-08-21T03:42:43;0.50;;;0.50;;
9500;SDS011;4788;52.438;9.846;2022-08-21T03:45:11;0.50;;;0.50;;
9500;SDS011;4788;52.438;9.846;2022-08-21T03:47:38;0.40;;;0.40;;
9500;SDS011;4788;52.438;9.846;2022-08-21T03:50:04;0.50;;;0.50;;
9500;SDS011;4788;52.438;9.846;2022-08-21T03:52:30;0.50;;;0.50;;
9500;SDS011;4788;52.438;9.846;2022-08-21T03:54:56;0.50;;;0.50;;
9500;SDS011;4788;52.438;9.846;2022-08-21T03:57:22;0.50;;;0.50;;
9500;SDS011;4788;52.438;9.846;2022-08-21T03:59:48;0.40;;;0.40;;
9500;SDS011;4788;52.438;9.846;2022-08-21T04:02:15;0.50;;;0.50;;
9500;SDS011;4788;52.438;9.846;2022-08-21T04:04:42;0.50;;;0.50;;
9500;SDS011;4788;52.438;9.846;2022-08-21T04:07:08;0.50;;;0.50;;
9500;SDS011;4788;52.438;9.846;2022-08-21T04:09:34;0.50;;;0.50;;
9500;SDS011;4788;52.438;9.846;2022-08-21T04:12:00;0.60;;;0.60;;
9500;SDS011;4788;52.438;9.846;2022-08-21T04:14:27;0.50;;;0.50;;
9500;SDS011;4788;52.438;9.846;2022-08-21T04:16:53;0.50;;;0.50;;
9500;SDS011;4788;52.438;9.846;2022-08-21T04:19:19;0.40;;;0.40;;
9500;SDS011;4788;52.438;9.846;2022-08-21T04:21:45;0.60;;;0.60;;
9500;SDS011;4788;52.438;9.846;2022-08-21T04:24:11;0.40;;;0.40;;
9500;SDS011;4788;52.438;9.846;2022-08-21T04:26:37;0.50;;;0.50;;
9500;SDS011;4788;52.438;9.846;2022-08-21T04:29:04;0.50;;;0.50;;
9500;SDS011;4788;52.438;9.846;2022-08-21T04:31:33;0.40;;;0.40;;
9500;SDS011;4788;52.438;9.846;2022-08-21T04:33:59;0.50;;;0.50;;
9500;SDS011;4788;52.438;9.846;2022-08-21T04:36:25;0.40;;;0.40;;
9500;SDS011;4788;52.438;9.846;2022-08-21T04:38:51;0.50;;;0.50;;
9500;SDS011;4788;52.438;9.846;2022-08-21T04:41:18;0.50;;;0.50;;
9500;SDS011;4788;52.438;9.846;2022-08-21T04:43:44;0.47;;;0.47;;
9500;SDS011;4788;52.438;9.846;2022-08-21T04:46:10;0.40;;;0.40;;
9500;SDS011;4788;52.438;9.846;2022-08-21T04:48:36;0.50;;;0.50;;
9500;SDS011;4788;52.438;9.846;2022-08-21T04:56:28;0.40;;;0.40;;
9500;SDS011;4788;52.438;9.846;2022-08-21T04:58:56;0.50;;;0.50;;
9500;SDS011;4788;52.438;9.846;2022-08-21T05:01:24;0.40;;;0.40;;
9500;SDS011;4788;52.438;9.846;2022-08-21T05:03:52;0.50;;;0.50;;
9500;SDS011;4788;52.438;9.846;2022-08-21T05:06:20;0.50;;;0.50;;
9500;SDS011;4788;52.438;9.846;2022-08-21T05:08:47;0.60;;;0.60;;
9500;SDS011;4788;52.438;9.846;2022-08-21T05:11:14;0.50;;;0.50;;
9500;SDS011;4788;52.438;9.846;2022-08-21T05:13:40;0.50;;;0.50;;
9500;SDS011;4788;52.438;9.846;2022-08-21T05:16:06;0.50;;;0.50;;
9500;SDS011;4788;52.438;9.846;2022-08-21T05:18:32;0.40;;;0.40;;
9500;SDS011;4788;52.438;9.846;2022-08-21T05:20:58;0.40;;;0.40;;
9500;SDS011;4788;52.438;9.846;2022-08-21T05:23:24;0.40;;;0.40;;
9500;SDS011;4788;52.438;9.846;2022-08-21T05:25:50;0.40;;;0.40;;
9500;SDS011;4788;52.438;9.846;2022-08-21T05:28:17;0.50;;;0.50;;
9500;SDS011;4788;52.438;9.846;2022-08-21T05:30:43;0.50;;;0.50;;
9500;SDS011;4788;52.438;9.846;2022-08-21T05:33:09;0.50;;;0.50;;
9500;SDS011;4788;52.438;9.846;2022-08-21T05:35:35;0.40;;;0.40;;
9500;SDS011;4788;52.438;9.846;2022-08-21T05:38:02;0.50;;;0.50;;
9500;SDS011;4788;52.438;9.846;2022-08-21T05:40:28;0.50;;;0.50;;
9500;SDS011;4788;52.438;9.846;2022-08-21T05:42:54;0.40;;;0.40;;
9500;SDS011;4788;52.438;9.846;2022-08-21T05:45:24;0.40;;;0.40;;
9500;SDS011;4788;52.438;9.846;2022-08-21T05:47:50;0.40;;;0.40;;
9500;SDS011;4788;52.438;9.846;2022-08-21T05:50:16;0.40;;;0.40;;
9500;SDS011;4788;52.438;9.846;2022-08-21T05:52:42;0.40;;;0.40;;
9500;SDS011;4788;52.438;9.846;2022-08-21T05:55:08;0.33;;;0.33;;
9500;SDS011;4788;52.438;9.846;2022-08-21T05:57:34;0.40;;;0.40;;
9500;SDS011;4788;52.438;9.846;2022-08-21T06:00:00;0.40;;;0.40;;
9500;SDS011;4788;52.438;9.846;2022-08-21T06:02:26;0.40;;;0.40;;
9500;SDS011;4788;52.438;9.846;2022-08-21T06:04:52;0.37;;;0.37;;
9500;SDS011;4788;52.438;9.846;2022-08-21T06:07:18;0.40;;;0.40;;
9500;SDS011;4788;52.438;9.846;2022-08-21T06:09:44;0.30;;;0.30;;
9500;SDS011;4788;52.438;9.846;2022-08-21T06:12:10;0.40;;;0.40;;
9500;SDS011;4788;52.438;9.846;2022-08-21T06:14:38;0.40;;;0.40;;
9500;SDS011;4788;52.438;9.846;2022-08-21T06:17:08;0.30;;;0.30;;
9500;SDS011;4788;52.438;9.846;2022-08-21T06:19:34;0.40;;;0.40;;
9500;SDS011;4788;52.438;9.846;2022-08-21T06:22:01;0.30;;;0.30;;
9500;SDS011;4788;52.438;9.846;2022-08-21T06:24:28;0.30;;;0.30;;
9500;SDS011;4788;52.438;9.846;2022-08-21T06:26:54;0.33;;;0.33;;
9500;SDS011;4788;52.438;9.846;2022-08-21T06:29:20;0.30;;;0.30;;
9500;SDS011;4788;52.438;9.846;2022-08-21T06:31:47;0.30;;;0.30;;
9500;SDS011;4788;52.438;9.846;2022-08-21T06:34:13;0.30;;;0.30;;
9500;SDS011;4788;52.438;9.846;2022-08-21T06:36:39;0.40;;;0.40;;
9500;SDS011;4788;52.438;9.846;2022-08-21T06:39:05;0.40;;;0.40;;
9500;SDS011;4788;52.438;9.846;2022-08-21T06:41:31;0.40;;;0.40;;
9500;SDS011;4788;52.438;9.846;2022-08-21T06:43:57;0.40;;;0.40;;
9500;SDS011;4788;52.438;9.846;2022-08-21T06:46:24;0.40;;;0.40;;
9500;SDS011;4788;52.438;9.846;2022-08-21T06:48:50;0.30;;;0.30;;
9500;SDS011;4788;52.438;9.846;2022-08-21T06:51:16;0.40;;;0.40;;
9500;SDS011;4788;52.438;9.846;2022-08-21T06:53:42;0.33;;;0.33;;
9500;SDS011;4788;52.438;9.846;2022-08-21T06:56:08;0.40;;;0.40;;
9500;SDS011;4788;52.438;9.846;2022-08-21T06:58:34;0.30;;;0.30;;
9500;SDS011;4788;52.438;9.846;2022-08-21T07:01:00;0.30;;;0.30;;
9500;SDS011;4788;52.438;9.846;2022-08-21T07:03:28;0.30;;;0.30;;
9500;SDS011;4788;52.438;9.846;2022-08-21T07:05:55;0.30;;;0.30;;
9500;SDS011;4788;52.438;9.846;2022-08-21T07:08:23;0.30;;;0.30;;
9500;SDS011;4788;52.438;9.846;2022-08-21T07:10:51;0.30;;;0.30;;
9500;SDS011;4788;52.438;9.846;2022-08-21T07:13:17;0.30;;;0.30;;
9500;SDS011;4788;52.438;9.846;2022-08-21T07:15:44;0.30;;;0.30;;
9500;SDS011;4788;52.438;9.846;2022-08-21T07:18:10;0.20;;;0.20;;
9500;SDS011;4788;52.438;9.846;2022-08-21T07:20:36;0.30;;;0.30;;
9500;SDS011;4788;52.438;9.846;2022-08-21T07:23:04;0.23;;;0.23;;
9500;SDS011;4788;52.438;9.846;2022-08-21T07:25:30;0.30;;;0.30;;
9500;SDS011;4788;52.438;9.846;2022-08-21T07:27:57;0.30;;;0.30;;
9500;SDS011;4788;52.438;9.846;2022-08-21T07:30:23;0.30;;;0.30;;
9500;SDS011;4788;52.438;9.846;2022-08-21T07:32:49;0.20;;;0.20;;
9500;SDS011;4788;52.438;9.846;2022-08-21T07:35:15;0.20;;;0.20;;
9500;SDS011;4788;52.438;9.846;2022-08-21T07:37:41;0.20;;;0.20;;
9500;SDS011;4788;52.438;9.846;2022-08-21T07:40:08;0.20;;;0.20;;
9500;SDS011;4788;52.438;9.846;2022-08-21T07:42:34;0.20;;;0.20;;
9500;SDS011;4788;52.438;9.846;2022-08-21T07:45:00;0.17;;;0.17;;
9500;SDS011;4788;52.438;9.846;2022-08-21T07:47:25;0.10;;;0.10;;
9500;SDS011;4788;52.438;9.846;2022-08-21T07:49:51;0.20;;;0.20;;
9500;SDS011;4788;52.438;9.846;2022-08-21T07:52:17;0.20;;;0.20;;
9500;SDS011;4788;52.438;9.846;2022-08-21T07:54:44;0.10;;;0.10;;
9500;SDS011;4788;52.438;9.846;2022-08-21T07:57:10;0.15;;;0.15;;
9500;SDS011;4788;52.438;9.846;2022-08-21T07:59:36;0.10;;;0.10;;
9500;SDS011;4788;52.438;9.846;2022-08-21T08:02:02;0.13;;;0.13;;
9500;SDS011;4788;52.438;9.846;2022-08-21T08:04:28;0.10;;;0.10;;
9500;SDS011;4788;52.438;9.846;2022-08-21T08:06:54;0.10;;;0.10;;
9500;SDS011;4788;52.438;9.846;2022-08-21T08:09:20;0.10;;;0.10;;
9500;SDS011;4788;52.438;9.846;2022-08-21T08:11:46;0.10;;;0.10;;
9500;SDS011;4788;52.438;9.846;2022-08-21T08:14:12;0.10;;;0.10;;
9500;SDS011;4788;52.438;9.846;2022-08-21T08:16:38;0.15;;;0.15;;
9500;SDS011;4788;52.438;9.846;2022-08-21T08:19:04;0.10;;;0.10;;
9500;SDS011;4788;52.438;9.846;2022-08-21T08:21:30;0.10;;;0.10;;
9500;SDS011;4788;52.438;9.846;2022-08-21T08:23:57;0.10;;;0.10;;
9500;SDS011;4788;52.438;9.846;2022-08-21T08:26:23;0.10;;;0.10;;
9500;SDS011;4788;52.438;9.846;2022-08-21T08:28:49;0.10;;;0.10;;
9500;SDS011;4788;52.438;9.846;2022-08-21T08:31:15;0.10;;;0.10;;
9500;SDS011;4788;52.438;9.846;2022-08-21T08:33:41;0.10;;;0.10;;
9500;SDS011;4788;52.438;9.846;2022-08-21T08:36:12;0.10;;;0.10;;
9500;SDS011;4788;52.438;9.846;2022-08-21T08:38:38;0.10;;;0.10;;
9500;SDS011;4788;52.438;9.846;2022-08-21T08:43:37;0.10;;;0.10;;
9500;SDS011;4788;52.438;9.846;2022-08-21T08:46:04;0.10;;;0.10;;
9500;SDS011;4788;52.438;9.846;2022-08-21T08:48:51;0.10;;;0.10;;
9500;SDS011;4788;52.438;9.846;2022-08-21T08:51:23;0.10;;;0.10;;
9500;SDS011;4788;52.438;9.846;2022-08-21T08:53:57;0.10;;;0.10;;
9500;SDS011;4788;52.438;9.846;2022-08-21T08:56:30;0.10;;;0.10;;
9500;SDS011;4788;52.438;9.846;2022-08-21T08:58:58;0.10;;;0.10;;
9500;SDS011;4788;52.438;9.846;2022-08-21T09:01:24;0.10;;;0.10;;
9500;SDS011;4788;52.438;9.846;2022-08-21T09:03:50;0.10;;;0.10;;
9500;SDS011;4788;52.438;9.846;2022-08-21T09:11:40;0.10;;;0.10;;
9500;SDS011;4788;52.438;9.846;2022-08-21T09:14:21;0.10;;;0.10;;
9500;SDS011;4788;52.438;9.846;2022-08-21T09:24:31;0.10;;;0.10;;
9500;SDS011;4788;52.438;9.846;2022-08-21T09:29:31;0.10;;;0.10;;
9500;SDS011;4788;52.438;9.846;2022-08-21T09:31:58;0.10;;;0.10;;
9500;SDS011;4788;52.438;9.846;2022-08-21T09:34:26;0.10;;;0.10;;
9500;SDS011;4788;52.438;9.846;2022-08-21T09:36:52;0.10;;;0.10;;
9500;SDS011;4788;52.438;9.846;2022-08-21T09:39:26;0.10;;;0.10;;
9500;SDS011;4788;52.438;9.846;2022-08-21T09:42:03;0.10;;;0.10;;
9500;SDS011;4788;52.438;9.846;2022-08-21T09:44:31;0.10;;;0.10;;
9500;SDS011;4788;52.438;9.846;2022-08-21T09:46:58;0.10;;;0.10;;
9500;SDS011;4788;52.438;9.846;2022-08-21T09:49:34;0.10;;;0.10;;
9500;SDS011;4788;52.438;9.846;2022-08-21T09:52:01;0.10;;;0.10;;
9500;SDS011;4788;52.438;9.846;2022-08-21T09:54:29;0.10;;;0.10;;
9500;SDS011;4788;52.438;9.846;2022-08-21T09:56:58;0.10;;;0.10;;
9500;SDS011;4788;52.438;9.846;2022-08-21T09:59:43;0.10;;;0.10;;
9500;SDS011;4788;52.438;9.846;2022-08-21T10:04:41;0.10;;;0.10;;
9500;SDS011;4788;52.438;9.846;2022-08-21T10:07:14;0.10;;;0.10;;
9500;SDS011;4788;52.438;9.846;2022-08-21T10:09:41;0.10;;;0.10;;
9500;SDS011;4788;52.438;9.846;2022-08-21T10:14:36;0.03;;;0.03;;
9500;SDS011;4788;52.438;9.846;2022-08-21T10:17:14;0.00;;;0.00;;
9500;SDS011;4788;52.438;9.846;2022-08-21T10:19:43;0.10;;;0.10;;
9500;SDS011;4788;52.438;9.846;2022-08-21T10:22:34;0.00;;;0.00;;
9500;SDS011;4788;52.438;9.846;2022-08-21T10:25:05;0.10;;;0.10;;
9500;SDS011;4788;52.438;9.846;2022-08-21T10:27:37;0.00;;;0.00;;
9500;SDS011;4788;52.438;9.846;2022-08-21T10:30:08;0.08;;;0.08;;
9500;SDS011;4788;52.438;9.846;2022-08-21T10:35:10;0.00;;;0.00;;
9500;SDS011;4788;52.438;9.846;2022-08-21T10:42:55;0.10;;;0.10;;
9500;SDS011;4788;52.438;9.846;2022-08-21T10:45:34;0.10;;;0.10;;
9500;SDS011;4788;52.438;9.846;2022-08-21T10:48:03;0.10;;;0.10;;
9500;SDS011;4788;52.438;9.846;2022-08-21T10:50:37;0.10;;;0.10;;
9500;SDS011;4788;52.438;9.846;2022-08-21T10:53:11;0.10;;;0.10;;
9500;SDS011;4788;52.438;9.846;2022-08-21T10:55:47;0.10;;;0.10;;
9500;SDS011;4788;52.438;9.846;2022-08-21T10:58:30;0.10;;;0.10;;
9500;SDS011;4788;52.438;9.846;2022-08-21T11:01:04;0.10;;;0.10;;
9500;SDS011;4788;52.438;9.846;2022-08-21T11:03:41;0.10;;;0.10;;
9500;SDS011;4788;52.438;9.846;2022-08-21T11:06:14;0.10;;;0.10;;
9500;SDS011;4788;52.438;9.846;2022-08-21T11:08:42;0.10;;;0.10;;
9500;SDS011;4788;52.438;9.846;2022-08-21T11:16:09;0.10;;;0.10;;
9500;SDS011;4788;52.438;9.846;2022-08-21T11:19:12;0.10;;;0.10;;
9500;SDS011;4788;52.438;9.846;2022-08-21T11:29:22;0.10;;;0.10;;
9500;SDS011;4788;52.438;9.846;2022-08-21T11:34:24;0.00;;;0.00;;
9500;SDS011;4788;52.438;9.846;2022-08-21T11:37:11;0.08;;;0.08;;
9500;SDS011;4788;52.438;9.846;2022-08-21T11:39:46;0.03;;;0.03;;
9500;SDS011;4788;52.438;9.846;2022-08-21T11:47:19;0.03;;;0.03;;
9500;SDS011;4788;52.438;9.846;2022-08-21T11:54:44;0.05;;;0.05;;
9500;SDS011;4788;52.438;9.846;2022-08-21T11:57:25;0.10;;;0.10;;
9500;SDS011;4788;52.438;9.846;2022-08-21T12:00:07;0.08;;;0.08;;
9500;SDS011;4788;52.438;9.846;2022-08-21T12:02:39;0.10;;;0.10;;
9500;SDS011;4788;52.438;9.846;2022-08-21T12:05:07;0.00;;;0.00;;
9500;SDS011;4788;52.438;9.846;2022-08-21T12:07:36;0.10;;;0.10;;
9500;SDS011;4788;52.438;9.846;2022-08-21T12:10:10;0.10;;;0.10;;
9500;SDS011;4788;52.438;9.846;2022-08-21T12:12:38;0.00;;;0.00;;
9500;SDS011;4788;52.438;9.846;2022-08-21T12:17:53;0.10;;;0.10;;
9500;SDS011;4788;52.438;9.846;2022-08-21T12:22:53;0.08;;;0.08;;
9500;SDS011;4788;52.438;9.846;2022-08-21T12:25:20;0.00;;;0.00;;
9500;SDS011;4788;52.438;9.846;2022-08-21T12:27:49;0.00;;;0.00;;
9500;SDS011;4788;52.438;9.846;2022-08-21T12:30:23;0.00;;;0.00;;
9500;SDS011;4788;52.438;9.846;2022-08-21T12:32:59;0.00;;;0.00;;
9500;SDS011;4788;52.438;9.846;2022-08-21T12:35:26;0.10;;;0.10;;
9500;SDS011;4788;52.438;9.846;2022-08-21T12:37:57;0.00;;;0.00;;
9500;SDS011;4788;52.438;9.846;2022-08-21T12:40:25;0.00;;;0.00;;
9500;SDS011;4788;52.438;9.846;2022-08-21T12:42:54;0.10;;;0.10;;
9500;SDS011;4788;52.438;9.846;2022-08-21T12:48:10;0.10;;;0.10;;
9500;SDS011;4788;52.438;9.846;2022-08-21T12:51:06;0.10;;;0.10;;
9500;SDS011;4788;52.438;9.846;2022-08-21T12:56:11;0.10;;;0.10;;
9500;SDS011;4788;52.438;9.846;2022-08-21T12:58:40;0.00;;;0.00;;
9500;SDS011;4788;52.438;9.846;2022-08-21T13:03:42;0.10;;;0.10;;
9500;SDS011;4788;52.438;9.846;2022-08-21T13:06:12;0.10;;;0.10;;
9500;SDS011;4788;52.438;9.846;2022-08-21T13:08:38;0.10;;;0.10;;
9500;SDS011;4788;52.438;9.846;2022-08-21T13:11:05;0.10;;;0.10;;
9500;SDS011;4788;52.438;9.846;2022-08-21T13:13:32;0.10;;;0.10;;
9500;SDS011;4788;52.438;9.846;2022-08-21T13:16:02;0.10;;;0.10;;
9500;SDS011;4788;52.438;9.846;2022-08-21T13:18:29;0.10;;;0.10;;
9500;SDS011;4788;52.438;9.846;2022-08-21T13:21:03;0.10;;;0.10;;
9500;SDS011;4788;52.438;9.846;2022-08-21T13:23:29;0.10;;;0.10;;
9500;SDS011;4788;52.438;9.846;2022-08-21T13:25:56;0.10;;;0.10;;
9500;SDS011;4788;52.438;9.846;2022-08-21T13:28:22;0.10;;;0.10;;
9500;SDS011;4788;52.438;9.846;2022-08-21T13:30:50;0.10;;;0.10;;
9500;SDS011;4788;52.438;9.846;2022-08-21T13:33:17;0.10;;;0.10;;
9500;SDS011;4788;52.438;9.846;2022-08-21T13:38:17;0.00;;;0.00;;
9500;SDS011;4788;52.438;9.846;2022-08-21T13:40:46;0.10;;;0.10;;
9500;SDS011;4788;52.438;9.846;2022-08-21T13:43:14;0.10;;;0.10;;
9500;SDS011;4788;52.438;9.846;2022-08-21T13:45:43;0.10;;;0.10;;
9500;SDS011;4788;52.438;9.846;2022-08-21T13:48:09;0.10;;;0.10;;
9500;SDS011;4788;52.438;9.846;2022-08-21T13:50:36;0.10;;;0.10;;
9500;SDS011;4788;52.438;9.846;2022-08-21T13:53:04;0.10;;;0.10;;
9500;SDS011;4788;52.438;9.846;2022-08-21T13:55:34;0.10;;;0.10;;
9500;SDS011;4788;52.438;9.846;2022-08-21T13:58:01;0.10;;;0.10;;
9500;SDS011;4788;52.438;9.846;2022-08-21T14:00:28;0.10;;;0.10;;
9500;SDS011;4788;52.438;9.846;2022-08-21T14:03:00;0.10;;;0.10;;
9500;SDS011;4788;52.438;9.846;2022-08-21T14:05:27;0.10;;;0.10;;
9500;SDS011;4788;52.438;9.846;2022-08-21T14:08:07;0.10;;;0.10;;
9500;SDS011;4788;52.438;9.846;2022-08-21T14:10:35;0.10;;;0.10;;
9500;SDS011;4788;52.438;9.846;2022-08-21T14:13:03;0.10;;;0.10;;
9500;SDS011;4788;52.438;9.846;2022-08-21T14:15:30;0.10;;;0.10;;
9500;SDS011;4788;52.438;9.846;2022-08-21T14:18:18;0.10;;;0.10;;
9500;SDS011;4788;52.438;9.846;2022-08-21T14:20:43;0.10;;;0.10;;
9500;SDS011;4788;52.438;9.846;2022-08-21T14:23:10;0.10;;;0.10;;
9500;SDS011;4788;52.438;9.846;2022-08-21T14:25:39;0.10;;;0.10;;
9500;SDS011;4788;52.438;9.846;2022-08-21T14:30:35;0.10;;;0.10;;
9500;SDS011;4788;52.438;9.846;2022-08-21T14:33:02;0.10;;;0.10;;
9500;SDS011;4788;52.438;9.846;2022-08-21T14:35:29;0.10;;;0.10;;
9500;SDS011;4788;52.438;9.846;2022-08-21T14:37:55;0.10;;;0.10;;
9500;SDS011;4788;52.438;9.846;2022-08-21T14:40:22;0.10;;;0.10;;
9500;SDS011;4788;52.438;9.846;2022-08-21T14:42:48;0.10;;;0.10;;
9500;SDS011;4788;52.438;9.846;2022-08-21T14:47:46;0.10;;;0.10;;
9500;SDS011;4788;52.438;9.846;2022-08-21T14:50:12;0.10;;;0.10;;
9500;SDS011;4788;52.438;9.846;2022-08-21T14:52:39;0.10;;;0.10;;
9500;SDS011;4788;52.438;9.846;2022-08-21T14:55:06;0.10;;;0.10;;
9500;SDS011;4788;52.438;9.846;2022-08-21T14:57:35;0.10;;;0.10;;
9500;SDS011;4788;52.438;9.846;2022-08-21T15:00:01;0.10;;;0.10;;
9500;SDS011;4788;52.438;9.846;2022-08-21T15:02:27;0.10;;;0.10;;
9500;SDS011;4788;52.438;9.846;2022-08-21T15:04:53;0.10;;;0.10;;
9500;SDS011;4788;52.438;9.846;2022-08-21T15:07:19;0.10;;;0.10;;
9500;SDS011;4788;52.438;9.846;2022-08-21T15:09:45;0.10;;;0.10;;
9500;SDS011;4788;52.438;9.846;2022-08-21T15:12:11;0.10;;;0.10;;
9500;SDS011;4788;52.438;9.846;2022-08-21T15:14:38;0.10;;;0.10;;
9500;SDS011;4788;52.438;9.846;2022-08-21T15:17:08;0.10;;;0.10;;
9500;SDS011;4788;52.438;9.846;2022-08-21T15:19:35;0.10;;;0.10;;
9500;SDS011;4788;52.438;9.846;2022-08-21T15:22:01;0.10;;;0.10;;
9500;SDS011;4788;52.438;9.846;2022-08-21T15:24:27;0.10;;;0.10;;
9500;SDS011;4788;52.438;9.846;2022-08-21T15:26:54;0.10;;;0.10;;
9500;SDS011;4788;52.438;9.846;2022-08-21T15:29:20;0.10;;;0.10;;
9500;SDS011;4788;52.438;9.846;2022-08-21T15:31:56;0.10;;;0.10;;
9500;SDS011;4788;52.438;9.846;2022-08-21T15:34:22;0.10;;;0.10;;
9500;SDS011;4788;52.438;9.846;2022-08-21T15:36:48;0.10;;;0.10;;
9500;SDS011;4788;52.438;9.846;2022-08-21T15:39:14;0.17;;;0.17;;
9500;SDS011;4788;52.438;9.846;2022-08-21T15:41:41;0.10;;;0.10;;
9500;SDS011;4788;52.438;9.846;2022-08-21T15:44:08;0.10;;;0.10;;
9500;SDS011;4788;52.438;9.846;2022-08-21T15:46:35;0.20;;;0.20;;
9500;SDS011;4788;52.438;9.846;2022-08-21T15:49:02;0.10;;;0.10;;
9500;SDS011;4788;52.438;9.846;2022-08-21T15:51:30;0.10;;;0.10;;
9500;SDS011;4788;52.438;9.846;2022-08-21T15:53:57;0.10;;;0.10;;
9500;SDS011;4788;52.438;9.846;2022-08-21T15:56:26;0.10;;;0.10;;
9500;SDS011;4788;52.438;9.846;2022-08-21T15:58:52;0.10;;;0.10;;
9500;SDS011;4788;52.438;9.846;2022-08-21T16:01:19;0.10;;;0.10;;
9500;SDS011;4788;52.438;9.846;2022-08-21T16:03:46;0.10;;;0.10;;
9500;SDS011;4788;52.438;9.846;2022-08-21T16:06:14;0.10;;;0.10;;
9500;SDS011;4788;52.438;9.846;2022-08-21T16:08:40;0.10;;;0.10;;
9500;SDS011;4788;52.438;9.846;2022-08-21T16:11:06;0.10;;;0.10;;
9500;SDS011;4788;52.438;9.846;2022-08-21T16:13:36;0.10;;;0.10;;
9500;SDS011;4788;52.438;9.846;2022-08-21T16:16:04;0.10;;;0.10;;
9500;SDS011;4788;52.438;9.846;2022-08-21T16:18:30;0.10;;;0.10;;
9500;SDS011;4788;52.438;9.846;2022-08-21T16:20:56;0.10;;;0.10;;
9500;SDS011;4788;52.438;9.846;2022-08-21T16:23:22;0.10;;;0.10;;
9500;SDS011;4788;52.438;9.846;2022-08-21T16:25:48;0.10;;;0.10;;
9500;SDS011;4788;52.438;9.846;2022-08-21T16:28:15;0.10;;;0.10;;
9500;SDS011;4788;52.438;9.846;2022-08-21T16:30:42;0.10;;;0.10;;
9500;SDS011;4788;52.438;9.846;2022-08-21T16:33:11;0.10;;;0.10;;
9500;SDS011;4788;52.438;9.846;2022-08-21T16:35:40;0.10;;;0.10;;
9500;SDS011;4788;52.438;9.846;2022-08-21T16:38:06;0.20;;;0.20;;
9500;SDS011;4788;52.438;9.846;2022-08-21T16:40:32;0.10;;;0.10;;
9500;SDS011;4788;52.438;9.846;2022-08-21T16:42:58;0.20;;;0.20;;